createdAt,value
2023-06-12T00:00:48.429Z,100940.31
2023-06-12T00:06:49.633Z,100943.56
2023-06-12T00:12:50.901Z,100951.66
2023-06-12T00:18:53.021Z,100953.06
2023-06-12T00:24:54.264Z,100949.97
2023-06-12T00:30:55.699Z,100952.81
2023-06-12T00:36:58.104Z,100945.63
2023-06-12T00:42:59.337Z,100946.19
2023-06-12T00:49:02.552Z,100935.22
2023-06-12T00:55:04.058Z,100943.66
2023-06-12T01:01:05.338Z,100945.00
2023-06-12T01:07:07.099Z,100943.19
2023-06-12T01:13:10.921Z,100936.31
2023-06-12T01:19:12.164Z,100937.50
2023-06-12T01:25:14.214Z,100933.41
2023-06-12T01:31:15.479Z,100941.16
2023-06-12T01:37:16.764Z,100933.91
2023-06-12T01:43:18.023Z,100932.94
2023-06-12T01:49:19.231Z,100923.56
2023-06-12T01:55:22.362Z,100918.28
2023-06-12T02:01:25.025Z,100922.91
2023-06-12T02:07:26.471Z,100919.28
2023-06-12T02:13:27.709Z,100924.41
2023-06-12T02:19:29.744Z,100926.84
2023-06-12T02:25:33.278Z,100921.63
2023-06-12T02:31:34.799Z,100924.06
2023-06-12T02:37:36.304Z,100927.84
2023-06-12T02:43:37.601Z,100935.91
2023-06-12T02:49:45.153Z,100932.75
2023-06-12T02:55:46.587Z,100935.25
2023-06-12T03:01:48.038Z,100924.06
2023-06-12T03:07:49.644Z,100929.34
2023-06-12T03:13:51.086Z,100941.19
2023-06-12T03:19:52.292Z,100949.75
2023-06-12T03:25:53.489Z,100942.81
2023-06-12T03:31:56.062Z,100952.38
2023-06-12T03:37:57.282Z,100954.69
2023-06-12T03:43:58.577Z,100957.00
2023-06-12T03:49:59.791Z,100960.78
2023-06-12T03:56:01.080Z,100958.63
2023-06-12T04:02:02.508Z,100963.91
2023-06-12T04:08:03.810Z,100956.47
2023-06-12T04:14:05.006Z,100954.78
2023-06-12T04:20:07.777Z,100948.31
2023-06-12T04:26:09.086Z,100952.25
2023-06-12T04:32:10.431Z,100942.81
2023-06-12T04:38:12.028Z,100951.00
2023-06-12T04:44:13.612Z,100958.31
2023-06-12T04:50:15.112Z,100953.25
2023-06-12T04:56:21.386Z,100961.34
2023-06-12T05:02:22.946Z,100949.59
2023-06-12T05:08:24.229Z,100958.63
2023-06-12T05:14:25.565Z,100963.53
2023-06-12T05:20:26.938Z,100969.56
2023-06-12T05:26:28.176Z,100960.50
2023-06-12T05:32:29.400Z,100967.78
2023-06-12T05:38:30.958Z,100968.81
2023-06-12T05:44:32.397Z,100969.34
2023-06-12T05:50:33.731Z,100970.97
2023-06-12T05:56:34.981Z,100977.91
2023-06-12T06:02:36.540Z,100972.44
2023-06-12T06:08:37.909Z,100975.91
2023-06-12T06:14:40.310Z,100976.34
2023-06-12T06:20:41.533Z,100989.13
2023-06-12T06:26:42.753Z,100982.31
2023-06-12T06:32:44.122Z,100987.38
2023-06-12T06:38:45.344Z,100989.25
2023-06-12T06:44:46.584Z,100987.56
2023-06-12T06:50:47.825Z,100996.25
2023-06-12T06:56:49.739Z,100991.06
2023-06-12T07:02:51.058Z,100998.81
2023-06-12T07:08:54.379Z,100991.25
2023-06-12T07:14:55.971Z,100985.97
2023-06-12T07:20:57.190Z,100971.88
2023-06-12T07:26:58.411Z,100978.25
2023-06-12T07:32:59.648Z,100975.34
2023-06-12T07:39:01.194Z,100978.50
2023-06-12T07:45:02.475Z,100973.34
2023-06-12T07:51:03.737Z,100964.91
2023-06-12T07:57:05.448Z,100963.28
2023-06-12T08:03:25.217Z,100971.75
2023-06-12T08:09:31.036Z,100970.09
2023-06-12T08:15:32.350Z,100966.72
2023-06-12T08:21:33.570Z,100961.28
2023-06-12T08:27:34.915Z,100937.47
2023-06-12T08:33:36.241Z,100952.53
2023-06-12T08:39:37.619Z,100954.16
2023-06-12T08:45:38.872Z,100949.88
2023-06-12T08:51:40.091Z,100942.97
2023-06-12T08:57:42.387Z,100934.41
2023-06-12T09:03:43.745Z,100940.56
2023-06-12T09:09:46.203Z,100933.78
2023-06-12T09:15:47.544Z,100924.69
2023-06-12T09:21:49.075Z,100928.22
2023-06-12T09:27:51.074Z,100924.25
2023-06-12T09:33:53.548Z,100920.16
2023-06-12T09:39:54.887Z,100916.75
2023-06-12T09:45:56.550Z,100921.81
2023-06-12T09:51:59.694Z,100929.66
2023-06-12T09:58:03.141Z,100930.16
2023-06-12T10:04:04.903Z,100929.44
2023-06-12T10:10:08.860Z,100924.88
2023-06-12T10:16:10.134Z,100913.69
2023-06-12T10:22:12.089Z,100901.19
2023-06-12T10:28:13.327Z,100901.28
2023-06-12T10:34:16.428Z,100893.03
2023-06-12T10:40:23.988Z,100893.69
2023-06-12T10:46:30.994Z,100890.75
2023-06-12T10:52:32.414Z,100880.84
2023-06-12T10:58:33.624Z,100882.88
2023-06-12T11:04:34.935Z,100878.81
2023-06-12T11:10:36.209Z,100877.34
2023-06-12T11:16:37.505Z,100881.94
2023-06-12T11:22:38.744Z,100871.94
2023-06-12T11:28:40.005Z,100884.72
2023-06-12T11:34:44.875Z,100887.75
2023-06-12T11:40:46.201Z,100877.16
2023-06-12T11:46:47.569Z,100872.53
2023-06-12T11:52:50.029Z,100870.28
2023-06-12T11:58:51.390Z,100867.75
2023-06-12T12:04:52.655Z,100862.28
2023-06-12T12:10:53.887Z,100867.66
2023-06-12T12:16:55.088Z,100867.47
2023-06-12T12:22:56.568Z,100858.69
2023-06-12T12:28:58.108Z,100862.22
2023-06-12T12:34:59.627Z,100859.28
2023-06-12T12:41:01.117Z,100856.91
2023-06-12T12:47:02.359Z,100855.41
2023-06-12T12:53:03.603Z,100858.28
2023-06-12T12:59:07.914Z,100856.97
2023-06-12T13:05:09.278Z,100849.50
2023-06-12T13:11:10.610Z,100847.47
2023-06-12T13:17:11.897Z,100847.94
2023-06-12T13:23:13.123Z,100841.00
2023-06-12T13:29:14.385Z,100841.44
2023-06-12T13:35:15.756Z,100835.28
2023-06-12T13:41:17.882Z,100834.38
2023-06-12T13:47:19.111Z,100823.81
2023-06-12T13:53:20.498Z,100814.59
2023-06-12T13:59:21.827Z,100818.63
2023-06-12T14:05:23.215Z,100820.41
2023-06-12T14:11:24.540Z,100821.31
2023-06-12T14:17:25.902Z,100822.81
2023-06-12T14:23:27.429Z,100814.78
2023-06-12T14:29:28.627Z,100809.22
2023-06-12T14:35:30.015Z,100804.72
2023-06-12T14:41:31.232Z,100801.09
2023-06-12T14:47:32.496Z,100793.13
2023-06-12T14:53:34.512Z,100799.38
2023-06-12T14:59:35.901Z,100790.94
2023-06-12T15:05:37.164Z,100789.63
2023-06-12T15:11:38.358Z,100790.66
2023-06-12T15:17:39.760Z,100780.06
2023-06-12T15:23:41.358Z,100782.72
2023-06-12T15:29:42.644Z,100778.31
2023-06-12T15:35:45.909Z,100773.28
2023-06-12T15:41:47.132Z,100770.09
2023-06-12T15:47:48.398Z,100769.97
2023-06-12T15:53:49.723Z,100768.13
2023-06-12T15:59:51.153Z,100766.72
2023-06-12T16:05:52.451Z,100757.69
2023-06-12T16:11:53.700Z,100757.84
2023-06-12T16:17:55.031Z,100750.50
2023-06-12T16:23:56.304Z,100739.66
2023-06-12T16:29:57.574Z,100745.47
2023-06-12T16:35:58.830Z,100732.28
2023-06-12T16:42:00.145Z,100742.88
2023-06-12T16:48:01.520Z,100738.34
2023-06-12T16:54:02.815Z,100739.41
2023-06-12T17:00:04.623Z,100736.06
2023-06-12T17:06:05.828Z,100729.56
2023-06-12T17:12:07.346Z,100729.69
2023-06-12T17:18:08.642Z,100723.47
2023-06-12T17:24:10.044Z,100727.78
2023-06-12T17:30:11.685Z,100733.09
2023-06-12T17:36:13.046Z,100727.41
2023-06-12T17:42:14.464Z,100725.69
2023-06-12T17:48:15.852Z,100726.91
2023-06-12T17:54:17.100Z,100721.50
2023-06-12T18:00:18.388Z,100711.69
2023-06-12T18:06:19.611Z,100715.44
2023-06-12T18:12:20.904Z,100722.75
2023-06-12T18:18:22.245Z,100717.19
2023-06-12T18:24:24.709Z,100715.06
2023-06-12T18:30:26.046Z,100707.59
2023-06-12T18:36:27.358Z,100721.28
2023-06-12T18:42:28.588Z,100717.88
2023-06-12T18:48:29.803Z,100718.13
2023-06-12T18:54:31.147Z,100726.00
2023-06-12T19:00:32.495Z,100722.91
2023-06-12T19:06:34.930Z,100725.00
2023-06-12T19:12:36.482Z,100723.06
2023-06-12T19:18:37.701Z,100732.00
2023-06-12T19:24:39.554Z,100733.59
2023-06-12T19:30:40.876Z,100729.53
2023-06-12T19:36:42.191Z,100739.56
2023-06-12T19:42:43.392Z,100742.31
2023-06-12T19:48:44.832Z,100745.44
2023-06-12T19:54:46.057Z,100754.53
2023-06-12T20:00:47.353Z,100763.25
2023-06-12T20:06:48.590Z,100760.53
2023-06-12T20:12:49.827Z,100767.16
2023-06-12T20:18:51.073Z,100771.72
2023-06-12T20:24:52.611Z,100778.63
2023-06-12T20:30:53.967Z,100779.13
2023-06-12T20:36:55.278Z,100794.13
2023-06-12T20:42:56.496Z,100797.81
2023-06-12T20:48:57.728Z,100800.34
2023-06-12T20:54:58.972Z,100806.53
2023-06-12T21:01:00.263Z,100799.88
2023-06-12T21:07:01.522Z,100808.97
2023-06-12T21:13:02.719Z,100813.53
2023-06-12T21:19:04.005Z,100815.25
2023-06-12T21:25:05.304Z,100816.88
2023-06-12T21:31:06.658Z,100830.16
2023-06-12T21:37:22.164Z,100812.84
2023-06-12T21:43:24.761Z,100808.78
2023-06-12T21:49:26.114Z,100811.28
2023-06-12T21:55:27.345Z,100813.34
2023-06-12T22:01:30.438Z,100825.19
2023-06-12T22:07:31.876Z,100822.81
2023-06-12T22:13:33.524Z,100820.47
2023-06-12T22:19:34.858Z,100820.91
2023-06-12T22:25:36.374Z,100825.41
2023-06-12T22:31:37.759Z,100830.31
2023-06-12T22:37:38.992Z,100825.06
2023-06-12T22:43:40.226Z,100820.19
2023-06-12T22:49:41.424Z,100823.06
2023-06-12T22:55:42.838Z,100829.91
2023-06-12T23:01:44.304Z,100827.75
2023-06-12T23:07:47.018Z,100834.44
2023-06-12T23:13:48.247Z,100841.91
2023-06-12T23:19:50.798Z,100834.88
2023-06-12T23:25:54.970Z,100823.06
2023-06-12T23:31:56.558Z,100829.91
2023-06-12T23:37:58.002Z,100829.66
2023-06-12T23:43:59.235Z,100826.53
2023-06-12T23:50:00.540Z,100823.53
2023-06-12T23:56:01.781Z,100829.94
